createdAt,value
2023-05-19T00:00:08.199Z,6.63
2023-05-19T00:00:22.133Z,5.80
2023-05-19T00:00:34.929Z,4.72
2023-05-19T00:00:48.559Z,5.40
2023-05-19T00:01:01.652Z,5.25
2023-05-19T00:01:14.178Z,4.40
2023-05-19T00:01:25.614Z,3.85
2023-05-19T00:01:37.170Z,4.05
2023-05-19T00:01:48.683Z,4.97
2023-05-19T00:02:02.238Z,5.28
2023-05-19T00:02:13.721Z,4.63
2023-05-19T00:02:25.278Z,5.07
2023-05-19T00:02:36.784Z,4.03
2023-05-19T00:02:48.403Z,5.78
2023-05-19T00:03:00.030Z,7.22
2023-05-19T00:03:11.795Z,5.95
2023-05-19T00:03:26.822Z,4.78
2023-05-19T00:03:38.281Z,4.57
2023-05-19T00:03:50.743Z,5.03
2023-05-19T00:04:02.155Z,4.63
2023-05-19T00:04:13.934Z,6.70
2023-05-19T00:04:25.420Z,7.88
2023-05-19T00:04:36.992Z,7.18
2023-05-19T00:04:49.040Z,3.83
2023-05-19T00:05:03.489Z,4.60
2023-05-19T00:05:14.966Z,5.35
2023-05-19T00:05:26.628Z,4.85
2023-05-19T00:05:39.459Z,4.03
2023-05-19T00:05:55.730Z,5.05
2023-05-19T00:06:08.177Z,4.85
2023-05-19T00:06:37.942Z,3.83
2023-05-19T00:06:50.521Z,3.42
2023-05-19T00:07:02.907Z,3.55
2023-05-19T00:07:17.290Z,4.28
2023-05-19T00:07:30.591Z,4.90
2023-05-19T00:07:43.751Z,5.18
2023-05-19T00:07:57.740Z,5.18
2023-05-19T00:08:13.759Z,6.65
2023-05-19T00:08:25.900Z,5.72
2023-05-19T00:08:38.061Z,3.92
2023-05-19T00:08:49.666Z,4.35
2023-05-19T00:09:10.309Z,5.43
2023-05-19T00:09:21.780Z,5.78
2023-05-19T00:09:35.409Z,4.35
2023-05-19T00:09:46.875Z,7.63
2023-05-19T00:09:58.376Z,8.35
2023-05-19T00:10:11.352Z,9.30
2023-05-19T00:10:22.939Z,5.03
2023-05-19T00:10:36.955Z,7.78
2023-05-19T00:10:51.429Z,8.77
2023-05-19T00:11:03.015Z,8.07
2023-05-19T00:11:14.528Z,8.82
2023-05-19T00:11:26.512Z,7.10
2023-05-19T00:11:38.590Z,5.68
2023-05-19T00:11:50.126Z,3.92
2023-05-19T00:12:01.574Z,6.03
2023-05-19T00:12:13.300Z,7.13
2023-05-19T00:12:24.769Z,6.68
2023-05-19T00:12:36.550Z,5.28
2023-05-19T00:12:48.246Z,5.20
2023-05-19T00:13:00.030Z,6.00
2023-05-19T00:13:11.425Z,5.82
2023-05-19T00:13:23.226Z,7.28
2023-05-19T00:13:34.677Z,7.97
2023-05-19T00:13:46.296Z,7.25
2023-05-19T00:13:58.803Z,5.55
2023-05-19T00:14:10.348Z,4.87
2023-05-19T00:14:21.717Z,3.47
2023-05-19T00:14:33.150Z,4.10
2023-05-19T00:14:44.579Z,3.30
2023-05-19T00:14:55.991Z,4.20
2023-05-19T00:15:07.688Z,4.60
2023-05-19T00:15:19.303Z,5.22
2023-05-19T00:15:30.833Z,6.00
2023-05-19T00:15:42.349Z,5.15
2023-05-19T00:15:54.131Z,4.65
2023-05-19T00:16:05.744Z,4.75
2023-05-19T00:16:17.306Z,5.70
2023-05-19T00:16:29.467Z,6.63
2023-05-19T00:16:41.110Z,7.55
2023-05-19T00:16:52.636Z,7.43
2023-05-19T00:17:04.129Z,4.18
2023-05-19T00:17:15.568Z,3.80
2023-05-19T00:17:29.027Z,3.58
2023-05-19T00:17:40.393Z,4.57
2023-05-19T00:17:51.805Z,4.22
2023-05-19T00:18:03.301Z,6.03
2023-05-19T00:18:14.778Z,6.32
2023-05-19T00:18:26.928Z,4.75
2023-05-19T00:18:38.262Z,3.13
2023-05-19T00:18:49.811Z,4.10
2023-05-19T00:19:03.993Z,6.70
2023-05-19T00:19:15.457Z,7.18
2023-05-19T00:19:26.791Z,6.22
2023-05-19T00:19:38.236Z,5.75
2023-05-19T00:19:49.620Z,5.18
2023-05-19T00:20:00.998Z,4.65
2023-05-19T00:20:12.600Z,3.45
2023-05-19T00:20:23.949Z,2.83
2023-05-19T00:20:35.261Z,3.08
2023-05-19T00:20:46.598Z,6.75
2023-05-19T00:20:57.927Z,9.57
2023-05-19T00:21:09.451Z,10.57
2023-05-19T00:21:21.075Z,7.70
2023-05-19T00:21:32.639Z,7.03
2023-05-19T00:21:44.048Z,6.90
2023-05-19T00:21:55.409Z,7.00
2023-05-19T00:22:06.751Z,6.15
2023-05-19T00:22:18.104Z,8.00
2023-05-19T00:22:29.433Z,7.32
2023-05-19T00:22:40.728Z,7.50
2023-05-19T00:22:51.993Z,4.68
2023-05-19T00:23:03.315Z,4.47
2023-05-19T00:23:14.666Z,4.55
2023-05-19T00:23:26.145Z,4.47
2023-05-19T00:23:37.522Z,4.32
2023-05-19T00:23:49.078Z,3.90
2023-05-19T00:24:00.446Z,4.35
2023-05-19T00:24:11.747Z,4.63
2023-05-19T00:24:23.026Z,4.35
2023-05-19T00:24:34.529Z,3.72
2023-05-19T00:24:45.835Z,3.65
2023-05-19T00:24:57.164Z,5.85
2023-05-19T00:25:08.705Z,6.00
2023-05-19T00:25:20.031Z,5.13
2023-05-19T00:25:31.585Z,6.53
2023-05-19T00:25:42.865Z,9.48
2023-05-19T00:25:54.133Z,8.55
2023-05-19T00:26:05.485Z,5.32
2023-05-19T00:26:16.898Z,5.05
2023-05-19T00:26:28.340Z,5.47
2023-05-19T00:26:39.740Z,5.80
2023-05-19T00:26:51.183Z,4.43
2023-05-19T00:27:02.554Z,4.93
2023-05-19T00:27:13.865Z,5.15
2023-05-19T00:27:25.190Z,4.70
2023-05-19T00:27:36.458Z,4.95
2023-05-19T00:27:47.749Z,3.85
2023-05-19T00:28:00.218Z,4.00
2023-05-19T00:28:11.518Z,3.28
2023-05-19T00:28:23.076Z,3.45
2023-05-19T00:28:34.371Z,3.25
2023-05-19T00:28:45.937Z,3.63
2023-05-19T00:28:57.527Z,5.03
2023-05-19T00:29:08.980Z,6.05
2023-05-19T00:29:20.374Z,5.00
2023-05-19T00:29:31.682Z,4.82
2023-05-19T00:29:42.982Z,6.25
2023-05-19T00:29:54.285Z,6.82
2023-05-19T00:30:05.980Z,6.30
2023-05-19T00:30:19.769Z,5.97
2023-05-19T00:30:31.341Z,3.88
2023-05-19T00:30:53.596Z,5.30
2023-05-19T00:31:14.950Z,6.28
2023-05-19T00:31:26.310Z,4.85
2023-05-19T00:31:37.715Z,3.97
2023-05-19T00:31:49.049Z,4.93
2023-05-19T00:32:00.545Z,4.63
2023-05-19T00:32:12.070Z,7.28
2023-05-19T00:32:26.416Z,6.70
2023-05-19T00:32:37.814Z,6.60
2023-05-19T00:32:49.249Z,4.50
2023-05-19T00:33:00.716Z,5.45
2023-05-19T00:33:12.175Z,5.75
2023-05-19T00:33:23.482Z,6.75
2023-05-19T00:33:34.783Z,5.53
2023-05-19T00:33:46.153Z,4.32
2023-05-19T00:34:00.594Z,5.18
2023-05-19T00:34:11.945Z,5.30
2023-05-19T00:34:24.432Z,4.22
2023-05-19T00:34:35.769Z,4.95
2023-05-19T00:34:47.095Z,4.93
2023-05-19T00:34:59.115Z,4.78
2023-05-19T00:35:10.722Z,4.47
2023-05-19T00:35:23.047Z,5.00
2023-05-19T00:35:34.361Z,5.35
2023-05-19T00:35:45.691Z,5.10
2023-05-19T00:35:56.978Z,5.90
2023-05-19T00:36:08.616Z,4.95
2023-05-19T00:36:19.885Z,5.07
2023-05-19T00:36:31.174Z,4.63
2023-05-19T00:36:47.397Z,4.32
2023-05-19T00:37:03.816Z,4.38
2023-05-19T00:37:19.780Z,4.50
2023-05-19T00:37:31.230Z,4.55
2023-05-19T00:37:42.591Z,5.15
2023-05-19T00:37:53.906Z,4.50
2023-05-19T00:38:05.251Z,3.25
2023-05-19T00:38:16.531Z,3.33
2023-05-19T00:38:27.882Z,5.38
2023-05-19T00:38:39.461Z,5.57
2023-05-19T00:38:50.736Z,6.20
2023-05-19T00:39:02.084Z,5.40
2023-05-19T00:39:13.477Z,6.15
2023-05-19T00:39:24.849Z,6.78
2023-05-19T00:39:36.167Z,7.18
2023-05-19T00:39:47.509Z,9.73
2023-05-19T00:39:58.864Z,7.20
2023-05-19T00:40:10.395Z,7.30
2023-05-19T00:40:22.659Z,6.68
2023-05-19T00:40:35.353Z,8.13
2023-05-19T00:40:46.750Z,6.85
2023-05-19T00:40:58.401Z,8.40
2023-05-19T00:41:09.702Z,7.45
2023-05-19T00:41:21.072Z,7.55
2023-05-19T00:41:32.447Z,5.75
2023-05-19T00:41:43.785Z,6.05
2023-05-19T00:41:55.156Z,5.65
2023-05-19T00:42:06.588Z,4.32
2023-05-19T00:42:27.236Z,5.30
2023-05-19T00:42:38.686Z,5.40
2023-05-19T00:42:50.069Z,4.32
2023-05-19T00:43:01.373Z,3.75
2023-05-19T00:43:12.697Z,5.70
2023-05-19T00:43:24.017Z,5.50
2023-05-19T00:43:35.375Z,5.22
2023-05-19T00:43:46.781Z,7.32
2023-05-19T00:43:59.183Z,7.78
2023-05-19T00:44:10.465Z,3.92
2023-05-19T00:44:21.781Z,6.95
2023-05-19T00:44:33.103Z,6.93
2023-05-19T00:44:44.437Z,5.63
2023-05-19T00:44:58.086Z,4.28
2023-05-19T00:45:10.958Z,4.60
2023-05-19T00:45:22.494Z,6.90
2023-05-19T00:45:34.411Z,9.23
2023-05-19T00:45:45.710Z,11.30
2023-05-19T00:45:57.479Z,8.65
2023-05-19T00:46:08.968Z,7.50
2023-05-19T00:46:20.437Z,7.25
2023-05-19T00:46:31.833Z,6.07
2023-05-19T00:46:43.237Z,4.68
2023-05-19T00:46:54.745Z,3.38
2023-05-19T00:47:06.523Z,4.75
2023-05-19T00:47:17.939Z,4.95
2023-05-19T00:47:29.337Z,4.50
2023-05-19T00:47:40.805Z,2.95
2023-05-19T00:47:52.189Z,3.47
2023-05-19T00:48:03.554Z,3.42
2023-05-19T00:48:22.282Z,3.80
2023-05-19T00:48:33.704Z,4.68
2023-05-19T00:49:10.301Z,6.85
2023-05-19T00:49:21.700Z,5.30
2023-05-19T00:49:32.999Z,4.20
2023-05-19T00:49:45.469Z,3.20
2023-05-19T00:49:56.782Z,4.28
2023-05-19T00:50:09.424Z,5.63
2023-05-19T00:50:31.816Z,6.60
2023-05-19T00:50:43.440Z,6.65
2023-05-19T00:50:58.549Z,5.95
2023-05-19T00:51:10.265Z,4.25
2023-05-19T00:51:22.418Z,4.05
2023-05-19T00:51:33.718Z,5.03
2023-05-19T00:51:48.677Z,4.28
2023-05-19T00:52:01.248Z,4.78
2023-05-19T00:52:12.627Z,5.38
2023-05-19T00:52:23.987Z,4.18
2023-05-19T00:52:35.362Z,4.05
2023-05-19T00:52:48.617Z,3.70
2023-05-19T00:52:59.959Z,4.45
2023-05-19T00:53:14.791Z,5.28
2023-05-19T00:53:26.135Z,5.70
2023-05-19T00:53:37.466Z,4.97
2023-05-19T00:53:48.829Z,4.05
2023-05-19T00:54:00.185Z,3.67
2023-05-19T00:54:11.575Z,3.53
2023-05-19T00:54:23.189Z,3.70
2023-05-19T00:54:37.472Z,6.13
2023-05-19T00:54:49.002Z,6.82
2023-05-19T00:55:00.348Z,5.30
2023-05-19T00:55:11.788Z,4.28
2023-05-19T00:55:24.990Z,4.82
2023-05-19T00:55:37.338Z,5.38
2023-05-19T00:55:48.672Z,6.72
2023-05-19T00:56:00.459Z,6.75
2023-05-19T00:56:11.843Z,7.75
2023-05-19T00:56:51.256Z,5.22
2023-05-19T00:57:02.764Z,5.93
2023-05-19T00:57:14.301Z,4.65
2023-05-19T00:57:27.413Z,4.82
2023-05-19T00:57:38.827Z,4.57
2023-05-19T00:57:50.369Z,5.40
2023-05-19T00:58:01.771Z,6.18
2023-05-19T00:58:13.894Z,5.68
2023-05-19T00:58:25.349Z,5.82
2023-05-19T00:58:36.785Z,5.97
2023-05-19T00:58:48.899Z,7.93
2023-05-19T00:59:00.762Z,8.07
2023-05-19T00:59:12.367Z,5.68
2023-05-19T00:59:23.750Z,6.18
2023-05-19T00:59:35.092Z,6.78
2023-05-19T00:59:47.133Z,6.85
2023-05-19T00:59:58.703Z,5.25
2023-05-19T01:00:10.355Z,5.15
2023-05-19T01:00:21.724Z,5.25
2023-05-19T01:00:39.109Z,5.18
2023-05-19T01:00:50.633Z,6.53
2023-05-19T01:01:02.152Z,5.72
2023-05-19T01:01:13.629Z,5.18
2023-05-19T01:01:25.054Z,5.40
2023-05-19T01:01:37.469Z,6.50
2023-05-19T01:01:49.367Z,5.90
2023-05-19T01:02:00.829Z,6.30
2023-05-19T01:02:12.115Z,5.30
2023-05-19T01:02:23.562Z,4.75
2023-05-19T01:02:35.208Z,6.60
2023-05-19T01:02:46.618Z,7.70
2023-05-19T01:02:58.102Z,7.28
2023-05-19T01:03:09.837Z,4.85
2023-05-19T01:03:22.019Z,4.93
2023-05-19T01:03:34.155Z,5.47
2023-05-19T01:03:45.782Z,5.35
2023-05-19T01:03:57.530Z,5.53
2023-05-19T01:04:09.048Z,5.75
2023-05-19T01:04:20.980Z,6.55
2023-05-19T01:04:33.093Z,6.05
2023-05-19T01:04:44.745Z,5.63
2023-05-19T01:04:59.595Z,4.75
2023-05-19T01:05:13.342Z,4.25
2023-05-19T01:05:24.709Z,5.38
2023-05-19T01:05:36.111Z,7.20
2023-05-19T01:05:47.465Z,8.23
2023-05-19T01:05:58.754Z,5.25
2023-05-19T01:06:10.072Z,6.95
2023-05-19T01:06:21.425Z,6.18
2023-05-19T01:06:32.821Z,5.30
2023-05-19T01:06:44.090Z,5.80
2023-05-19T01:06:56.356Z,7.07
2023-05-19T01:07:07.831Z,6.35
2023-05-19T01:07:19.201Z,5.50
2023-05-19T01:07:30.546Z,4.85
2023-05-19T01:07:42.214Z,4.53
2023-05-19T01:07:53.553Z,3.72
2023-05-19T01:08:05.456Z,3.70
2023-05-19T01:08:16.778Z,4.18
2023-05-19T01:08:28.485Z,4.22
2023-05-19T01:08:39.790Z,5.50
2023-05-19T01:08:51.599Z,5.35
2023-05-19T01:09:02.958Z,7.00
2023-05-19T01:09:14.599Z,6.35
2023-05-19T01:09:26.106Z,5.38
2023-05-19T01:09:37.425Z,4.88
2023-05-19T01:09:49.012Z,4.22
2023-05-19T01:10:00.401Z,6.35
2023-05-19T01:10:11.791Z,7.60
2023-05-19T01:10:23.154Z,8.10
2023-05-19T01:10:45.345Z,5.50
2023-05-19T01:10:56.671Z,5.88
2023-05-19T01:11:08.473Z,5.63
2023-05-19T01:11:19.842Z,5.25
2023-05-19T01:11:31.476Z,5.80
2023-05-19T01:11:42.796Z,6.25
2023-05-19T01:11:54.179Z,4.88
2023-05-19T01:12:05.702Z,5.32
2023-05-19T01:12:20.142Z,4.93
2023-05-19T01:12:31.472Z,5.65
2023-05-19T01:12:43.342Z,5.43
2023-05-19T01:12:54.692Z,4.63
2023-05-19T01:13:06.421Z,5.50
2023-05-19T01:13:17.802Z,7.05
2023-05-19T01:13:29.325Z,6.80
2023-05-19T01:13:42.072Z,6.93
2023-05-19T01:13:53.737Z,6.57
2023-05-19T01:14:05.237Z,6.00
2023-05-19T01:14:17.000Z,6.40
2023-05-19T01:14:28.892Z,7.70
2023-05-19T01:14:40.313Z,7.20
2023-05-19T01:14:51.745Z,6.55
2023-05-19T01:15:04.027Z,6.50
2023-05-19T01:15:15.568Z,6.28
2023-05-19T01:15:27.473Z,6.28
2023-05-19T01:15:50.515Z,6.90
2023-05-19T01:16:01.859Z,4.13
2023-05-19T01:16:16.343Z,4.72
2023-05-19T01:16:36.863Z,6.85
2023-05-19T01:16:59.428Z,9.15
2023-05-19T01:17:13.781Z,9.32
2023-05-19T01:17:38.117Z,8.45
2023-05-19T01:17:54.271Z,7.18
2023-05-19T01:18:11.397Z,6.05
2023-05-19T01:18:34.941Z,4.10
2023-05-19T01:18:52.570Z,4.70
2023-05-19T01:19:03.982Z,5.43
2023-05-19T01:19:18.449Z,5.65
2023-05-19T01:19:44.897Z,6.50
2023-05-19T01:20:00.727Z,7.55
2023-05-19T01:20:14.877Z,5.65
2023-05-19T01:20:35.872Z,7.63
2023-05-19T01:21:02.539Z,7.63
2023-05-19T01:21:13.914Z,4.85
2023-05-19T01:21:37.493Z,5.93
2023-05-19T01:22:07.220Z,4.40
2023-05-19T01:22:37.035Z,5.63
2023-05-19T01:23:03.744Z,5.22
2023-05-19T01:23:15.077Z,5.30
2023-05-19T01:23:26.341Z,6.38
2023-05-19T01:23:47.534Z,6.65
2023-05-19T01:24:01.890Z,4.68
2023-05-19T01:24:26.490Z,4.65
2023-05-19T01:24:56.468Z,5.18
2023-05-19T01:25:19.791Z,5.78
2023-05-19T01:25:31.090Z,9.10
2023-05-19T01:26:04.451Z,5.82
2023-05-19T01:26:36.050Z,5.15
2023-05-19T01:26:59.224Z,4.32
2023-05-19T01:27:25.355Z,3.30
2023-05-19T01:27:55.267Z,4.35
2023-05-19T01:28:12.802Z,4.90
2023-05-19T01:28:42.704Z,6.57
2023-05-19T01:28:57.056Z,4.50
2023-05-19T01:29:16.726Z,4.55
2023-05-19T01:29:40.349Z,5.30
2023-05-19T01:29:54.384Z,5.90
2023-05-19T01:30:05.644Z,6.20
2023-05-19T01:30:20.010Z,6.53
2023-05-19T01:30:38.908Z,5.45
2023-05-19T01:30:54.116Z,4.32
2023-05-19T01:31:06.749Z,7.25
2023-05-19T01:31:21.011Z,6.70
2023-05-19T01:31:33.651Z,6.25
2023-05-19T01:31:45.707Z,4.88
2023-05-19T01:32:22.141Z,4.35
2023-05-19T01:32:37.198Z,6.18
2023-05-19T01:32:49.177Z,5.18
2023-05-19T01:33:01.898Z,4.00
2023-05-19T01:33:13.929Z,3.72
2023-05-19T01:33:26.842Z,5.13
2023-05-19T01:33:39.692Z,6.95
2023-05-19T01:33:52.512Z,5.90
2023-05-19T01:34:03.903Z,4.28
2023-05-19T01:34:16.300Z,5.28
2023-05-19T01:34:27.767Z,6.65
2023-05-19T01:34:42.298Z,6.88
2023-05-19T01:34:54.097Z,4.38
2023-05-19T01:35:05.668Z,3.33
2023-05-19T01:35:17.043Z,4.40
2023-05-19T01:35:29.016Z,4.05
2023-05-19T01:35:41.222Z,3.63
2023-05-19T01:35:53.746Z,3.30
2023-05-19T01:36:07.468Z,3.60
2023-05-19T01:36:19.764Z,4.05
2023-05-19T01:36:31.707Z,5.45
2023-05-19T01:36:44.280Z,5.70
2023-05-19T01:36:55.918Z,9.32
2023-05-19T01:37:07.747Z,8.05
2023-05-19T01:37:19.504Z,6.07
2023-05-19T01:37:30.864Z,4.40
2023-05-19T01:37:42.458Z,6.10
2023-05-19T01:37:55.672Z,5.88
2023-05-19T01:38:10.264Z,4.80
2023-05-19T01:38:22.096Z,5.65
2023-05-19T01:38:34.081Z,5.50
2023-05-19T01:38:45.840Z,4.03
2023-05-19T01:38:58.250Z,4.13
2023-05-19T01:39:09.613Z,5.03
2023-05-19T01:39:21.635Z,7.65
2023-05-19T01:39:33.196Z,8.35
2023-05-19T01:39:45.181Z,9.40
2023-05-19T01:39:57.025Z,8.45
2023-05-19T01:40:09.723Z,7.85
2023-05-19T01:40:26.372Z,6.80
2023-05-19T01:40:38.514Z,5.43
2023-05-19T01:40:50.340Z,4.78
2023-05-19T01:41:03.112Z,5.30
2023-05-19T01:41:14.892Z,5.25
2023-05-19T01:41:26.301Z,5.60
2023-05-19T01:41:38.326Z,6.18
2023-05-19T01:41:51.158Z,5.55
2023-05-19T01:42:02.534Z,5.60
2023-05-19T01:42:14.447Z,4.57
2023-05-19T01:42:26.555Z,4.82
2023-05-19T01:42:38.347Z,4.20
2023-05-19T01:42:51.396Z,3.40
2023-05-19T01:43:02.814Z,3.00
2023-05-19T01:43:18.771Z,3.90
2023-05-19T01:43:31.485Z,5.60
2023-05-19T01:43:42.953Z,5.43
2023-05-19T01:43:55.467Z,4.75
2023-05-19T01:44:07.403Z,6.10
2023-05-19T01:44:18.894Z,6.80
2023-05-19T01:44:31.475Z,8.40
2023-05-19T01:44:42.780Z,8.25
2023-05-19T01:44:54.480Z,7.82
2023-05-19T01:45:06.662Z,7.45
2023-05-19T01:45:18.667Z,7.75
2023-05-19T01:45:31.025Z,6.43
2023-05-19T01:45:43.924Z,5.15
2023-05-19T01:45:55.799Z,8.02
2023-05-19T01:46:07.473Z,8.40
2023-05-19T01:46:19.086Z,8.45
2023-05-19T01:46:30.541Z,6.63
2023-05-19T01:46:42.292Z,6.68
2023-05-19T01:46:54.040Z,5.60
2023-05-19T01:47:05.637Z,5.70
2023-05-19T01:47:16.997Z,4.38
2023-05-19T01:47:28.501Z,5.13
2023-05-19T01:47:40.987Z,5.05
2023-05-19T01:47:54.513Z,6.47
2023-05-19T01:48:08.475Z,6.75
2023-05-19T01:48:22.608Z,5.78
2023-05-19T01:48:33.991Z,5.93
2023-05-19T01:48:46.629Z,5.88
2023-05-19T01:48:58.207Z,4.32
2023-05-19T01:49:09.547Z,6.30
2023-05-19T01:49:20.918Z,11.52
2023-05-19T01:49:32.358Z,12.65
2023-05-19T01:49:43.694Z,9.48
2023-05-19T01:49:55.055Z,6.63
2023-05-19T01:50:06.987Z,5.35
2023-05-19T01:50:18.325Z,6.00
2023-05-19T01:50:30.792Z,5.53
2023-05-19T01:50:42.656Z,6.03
2023-05-19T01:50:54.091Z,5.50
2023-05-19T01:51:05.465Z,5.43
2023-05-19T01:51:16.793Z,4.68
2023-05-19T01:51:28.109Z,5.40
2023-05-19T01:51:40.198Z,5.53
2023-05-19T01:51:52.341Z,5.45
2023-05-19T01:52:03.781Z,4.70
2023-05-19T01:52:15.137Z,4.90
2023-05-19T01:52:26.411Z,5.75
2023-05-19T01:52:37.862Z,6.10
2023-05-19T01:52:49.336Z,6.65
2023-05-19T01:53:00.898Z,5.57
2023-05-19T01:53:12.264Z,6.15
2023-05-19T01:53:23.981Z,7.97
2023-05-19T01:53:35.396Z,9.63
2023-05-19T01:53:46.693Z,8.52
2023-05-19T01:53:57.986Z,6.70
2023-05-19T01:54:09.270Z,4.93
2023-05-19T01:54:20.580Z,4.07
2023-05-19T01:54:31.911Z,4.18
2023-05-19T01:54:43.200Z,6.95
2023-05-19T01:54:54.537Z,7.03
2023-05-19T01:55:06.271Z,6.38
2023-05-19T01:55:17.826Z,5.60
2023-05-19T01:55:29.193Z,7.85
2023-05-19T01:55:45.435Z,8.05
2023-05-19T01:55:57.299Z,7.72
2023-05-19T01:56:08.638Z,8.82
2023-05-19T01:56:23.818Z,7.50
2023-05-19T01:56:42.085Z,4.68
2023-05-19T01:57:16.614Z,4.43
2023-05-19T01:57:39.228Z,5.95
2023-05-19T01:58:09.752Z,3.50
2023-05-19T01:58:41.333Z,5.82
2023-05-19T01:58:56.801Z,6.80
2023-05-19T01:59:16.560Z,6.53
2023-05-19T01:59:37.311Z,4.88
2023-05-19T01:59:57.993Z,4.93
2023-05-19T02:00:14.523Z,4.97
2023-05-19T02:00:31.616Z,3.78
2023-05-19T02:00:52.125Z,3.75
2023-05-19T02:01:16.773Z,4.50
2023-05-19T02:01:31.866Z,4.63
2023-05-19T02:01:53.670Z,6.57
2023-05-19T02:02:10.009Z,7.70
2023-05-19T02:02:26.845Z,5.53
2023-05-19T02:03:11.631Z,7.38
2023-05-19T02:03:41.941Z,6.45
2023-05-19T02:04:02.325Z,11.57
2023-05-19T02:04:13.684Z,6.63
2023-05-19T02:04:38.245Z,5.68
2023-05-19T02:04:57.420Z,6.22
2023-05-19T02:05:20.949Z,5.35
2023-05-19T02:05:40.647Z,3.22
2023-05-19T02:05:51.952Z,3.10
2023-05-19T02:06:09.088Z,2.97
2023-05-19T02:06:35.692Z,4.22
2023-05-19T02:06:50.009Z,6.30
2023-05-19T02:07:04.453Z,5.72
2023-05-19T02:07:19.349Z,4.78
2023-05-19T02:07:52.206Z,5.10
2023-05-19T02:08:22.386Z,5.10
2023-05-19T02:08:44.222Z,7.07
2023-05-19T02:08:58.528Z,6.65
2023-05-19T02:09:23.303Z,6.50
2023-05-19T02:09:40.649Z,6.75
2023-05-19T02:09:54.838Z,6.65
2023-05-19T02:10:07.199Z,4.18
2023-05-19T02:10:21.945Z,5.07
2023-05-19T02:10:35.927Z,6.43
2023-05-19T02:10:51.421Z,6.50
2023-05-19T02:11:17.484Z,5.30
2023-05-19T02:11:37.911Z,5.85
2023-05-19T02:12:04.218Z,5.35
2023-05-19T02:12:23.997Z,4.13
2023-05-19T02:12:36.537Z,7.95
2023-05-19T02:12:51.566Z,7.78
2023-05-19T02:13:06.381Z,3.88
2023-05-19T02:13:27.353Z,3.70
2023-05-19T02:13:47.122Z,2.92
2023-05-19T02:14:01.402Z,4.85
2023-05-19T02:14:17.818Z,5.18
2023-05-19T02:14:35.281Z,6.05
2023-05-19T02:15:02.403Z,5.38
2023-05-19T02:15:17.927Z,4.50
2023-05-19T02:15:32.376Z,6.20
2023-05-19T02:15:44.279Z,6.75
2023-05-19T02:15:57.616Z,5.68
2023-05-19T02:16:10.597Z,5.15
2023-05-19T02:16:24.213Z,5.85
2023-05-19T02:16:36.535Z,6.65
2023-05-19T02:16:48.550Z,4.90
2023-05-19T02:17:00.646Z,4.43
2023-05-19T02:17:15.946Z,3.85
2023-05-19T02:17:29.975Z,4.40
2023-05-19T02:17:43.677Z,4.85
2023-05-19T02:17:55.671Z,6.10
2023-05-19T02:18:09.981Z,5.82
2023-05-19T02:18:21.713Z,4.63
2023-05-19T02:18:33.383Z,4.55
2023-05-19T02:18:45.859Z,5.63
2023-05-19T02:18:57.295Z,5.22
2023-05-19T02:19:19.561Z,4.53
2023-05-19T02:19:35.822Z,5.90
2023-05-19T02:19:48.746Z,4.95
2023-05-19T02:20:00.145Z,4.32
2023-05-19T02:20:11.625Z,6.57
2023-05-19T02:20:23.227Z,6.43
2023-05-19T02:20:34.719Z,7.00
2023-05-19T02:20:46.202Z,5.80
2023-05-19T02:20:57.550Z,5.75
2023-05-19T02:21:08.805Z,5.85
2023-05-19T02:21:20.091Z,5.00
2023-05-19T02:21:31.441Z,5.63
2023-05-19T02:21:42.750Z,6.35
2023-05-19T02:21:54.045Z,5.50
2023-05-19T02:22:05.638Z,6.50
2023-05-19T02:22:16.965Z,6.03
2023-05-19T02:22:28.332Z,5.30
2023-05-19T02:22:39.658Z,6.30
2023-05-19T02:22:50.960Z,7.45
2023-05-19T02:23:02.258Z,7.55
2023-05-19T02:23:13.625Z,5.20
2023-05-19T02:23:25.102Z,4.63
2023-05-19T02:23:36.457Z,3.88
2023-05-19T02:23:50.945Z,4.20
2023-05-19T02:24:02.328Z,6.70
2023-05-19T02:24:13.942Z,5.72
2023-05-19T02:24:25.293Z,4.95
2023-05-19T02:24:36.649Z,5.90
2023-05-19T02:24:47.967Z,5.53
2023-05-19T02:24:59.281Z,8.98
2023-05-19T02:25:10.749Z,8.27
2023-05-19T02:25:22.172Z,6.78
2023-05-19T02:25:33.588Z,4.95
2023-05-19T02:25:44.890Z,5.32
2023-05-19T02:25:56.186Z,5.30
2023-05-19T02:26:07.546Z,6.88
2023-05-19T02:26:18.861Z,7.45
2023-05-19T02:26:30.194Z,5.32
2023-05-19T02:26:41.517Z,4.00
2023-05-19T02:26:53.617Z,3.50
2023-05-19T02:27:05.153Z,5.05
2023-05-19T02:27:16.493Z,5.22
2023-05-19T02:27:28.044Z,7.38
2023-05-19T02:27:39.752Z,5.60
2023-05-19T02:27:51.186Z,6.07
2023-05-19T02:28:02.464Z,5.03
2023-05-19T02:28:15.418Z,5.38
2023-05-19T02:28:26.735Z,3.63
2023-05-19T02:28:40.584Z,4.15
2023-05-19T02:28:52.567Z,3.80
2023-05-19T02:29:04.505Z,3.08
2023-05-19T02:29:23.743Z,3.60
2023-05-19T02:29:35.080Z,3.60
2023-05-19T02:29:46.405Z,3.53
2023-05-19T02:29:57.777Z,4.35
2023-05-19T02:30:09.522Z,4.95
2023-05-19T02:30:20.930Z,5.43
2023-05-19T02:30:32.559Z,7.30
2023-05-19T02:30:44.116Z,8.35
2023-05-19T02:30:55.467Z,7.55
2023-05-19T02:31:06.796Z,4.30
2023-05-19T02:31:18.203Z,5.57
2023-05-19T02:31:29.568Z,7.85
2023-05-19T02:31:41.202Z,8.13
2023-05-19T02:31:52.583Z,6.43
2023-05-19T02:32:04.050Z,4.47
2023-05-19T02:32:15.680Z,5.13
2023-05-19T02:32:30.244Z,4.82
2023-05-19T02:32:41.803Z,5.20
2023-05-19T02:32:53.252Z,6.32
2023-05-19T02:33:04.641Z,5.05
2023-05-19T02:33:16.034Z,3.97
2023-05-19T02:33:27.474Z,3.83
2023-05-19T02:33:38.831Z,4.78
2023-05-19T02:33:50.169Z,5.55
2023-05-19T02:34:01.479Z,5.40
2023-05-19T02:34:12.810Z,5.13
2023-05-19T02:34:24.347Z,5.18
2023-05-19T02:34:35.631Z,3.78
2023-05-19T02:34:47.024Z,3.60
2023-05-19T02:34:58.411Z,2.72
2023-05-19T02:35:09.806Z,3.15
2023-05-19T02:35:23.348Z,5.10
2023-05-19T02:35:34.713Z,6.47
2023-05-19T02:35:46.038Z,6.25
2023-05-19T02:35:57.533Z,6.30
2023-05-19T02:36:08.884Z,8.13
2023-05-19T02:36:20.177Z,7.53
2023-05-19T02:36:34.208Z,8.18
2023-05-19T02:36:45.585Z,4.53
2023-05-19T02:36:56.933Z,3.60
2023-05-19T02:37:08.279Z,3.65
2023-05-19T02:37:20.680Z,3.88
2023-05-19T02:37:32.017Z,4.30
2023-05-19T02:37:43.704Z,4.60
2023-05-19T02:37:55.244Z,3.85
2023-05-19T02:38:06.564Z,4.63
2023-05-19T02:38:19.871Z,4.53
2023-05-19T02:38:33.177Z,4.55
2023-05-19T02:38:44.908Z,5.30
2023-05-19T02:38:56.198Z,5.60
2023-05-19T02:39:07.504Z,4.22
2023-05-19T02:39:18.813Z,6.85
2023-05-19T02:39:30.132Z,8.68
2023-05-19T02:39:42.046Z,8.45
2023-05-19T02:39:53.367Z,5.50
2023-05-19T02:40:04.944Z,3.30
2023-05-19T02:40:16.304Z,4.60
2023-05-19T02:40:27.756Z,5.55
2023-05-19T02:40:39.096Z,7.05
2023-05-19T02:40:51.512Z,6.35
2023-05-19T02:41:02.824Z,6.03
2023-05-19T02:41:14.342Z,5.47
2023-05-19T02:41:25.703Z,7.88
2023-05-19T02:41:37.469Z,8.75
2023-05-19T02:41:48.847Z,7.47
2023-05-19T02:42:00.188Z,5.32
2023-05-19T02:42:11.567Z,4.57
2023-05-19T02:42:23.362Z,5.30
2023-05-19T02:42:34.645Z,4.07
2023-05-19T02:42:45.910Z,4.18
2023-05-19T02:42:57.545Z,3.67
2023-05-19T02:43:08.810Z,3.85
2023-05-19T02:43:20.064Z,3.53
2023-05-19T02:43:34.353Z,4.55
2023-05-19T02:43:46.701Z,5.53
2023-05-19T02:43:58.497Z,5.20
2023-05-19T02:44:15.109Z,5.53
2023-05-19T02:44:26.842Z,6.30
2023-05-19T02:44:38.133Z,6.22
2023-05-19T02:44:49.487Z,5.30
2023-05-19T02:45:00.848Z,4.63
2023-05-19T02:45:12.234Z,3.90
2023-05-19T02:45:23.534Z,4.75
2023-05-19T02:45:34.873Z,5.93
2023-05-19T02:45:46.197Z,5.90
2023-05-19T02:45:57.593Z,4.55
2023-05-19T02:46:08.971Z,3.97
2023-05-19T02:46:20.403Z,3.70
2023-05-19T02:46:31.914Z,3.90
2023-05-19T02:46:43.397Z,3.60
2023-05-19T02:46:54.875Z,3.42
2023-05-19T02:47:06.281Z,3.35
2023-05-19T02:47:17.626Z,3.95
2023-05-19T02:47:29.006Z,3.35
2023-05-19T02:47:40.366Z,5.20
2023-05-19T02:47:51.688Z,6.18
2023-05-19T02:48:03.200Z,6.10
2023-05-19T02:48:16.621Z,4.00
2023-05-19T02:48:27.984Z,4.00
2023-05-19T02:48:39.430Z,4.38
2023-05-19T02:48:51.016Z,4.65
2023-05-19T02:49:02.356Z,4.78
2023-05-19T02:49:13.859Z,4.55
2023-05-19T02:49:25.215Z,4.10
2023-05-19T02:49:38.645Z,5.05
2023-05-19T02:49:50.179Z,7.05
2023-05-19T02:50:01.544Z,6.60
2023-05-19T02:50:12.949Z,6.43
2023-05-19T02:50:24.253Z,4.10
2023-05-19T02:50:35.517Z,3.30
2023-05-19T02:50:46.856Z,5.32
2023-05-19T02:50:58.147Z,5.03
2023-05-19T02:51:09.451Z,2.85
2023-05-19T02:51:21.774Z,5.18
2023-05-19T02:51:33.141Z,6.53
2023-05-19T02:51:45.464Z,5.43
2023-05-19T02:51:56.928Z,4.38
2023-05-19T02:52:08.348Z,4.38
2023-05-19T02:52:19.629Z,3.78
2023-05-19T02:52:30.959Z,4.32
2023-05-19T02:52:42.348Z,6.20
2023-05-19T02:52:53.742Z,7.20
2023-05-19T02:53:05.021Z,6.00
2023-05-19T02:53:16.287Z,4.88
2023-05-19T02:53:27.577Z,4.45
2023-05-19T02:53:38.940Z,4.28
2023-05-19T02:53:50.576Z,3.25
2023-05-19T02:54:01.898Z,3.53
2023-05-19T02:54:13.294Z,3.42
2023-05-19T02:54:24.619Z,5.13
2023-05-19T02:54:35.995Z,5.40
2023-05-19T02:54:47.317Z,6.10
2023-05-19T02:54:58.632Z,4.45
2023-05-19T02:55:09.932Z,5.03